createdAt,value
2023-06-02T00:00:47.450Z,4.57
2023-06-02T00:03:18.409Z,4.40
2023-06-02T00:05:50.854Z,4.17
2023-06-02T00:08:24.139Z,4.18
2023-06-02T00:10:54.414Z,4.22
2023-06-02T00:13:24.047Z,4.30
2023-06-02T00:15:53.296Z,4.50
2023-06-02T00:18:24.575Z,4.45
2023-06-02T00:20:57.654Z,4.60
2023-06-02T00:23:30.151Z,3.60
2023-06-02T00:26:02.544Z,3.92
2023-06-02T00:28:33.921Z,4.20
2023-06-02T00:31:04.276Z,3.92
2023-06-02T00:33:33.340Z,3.60
2023-06-02T00:36:06.352Z,3.80
2023-06-02T00:38:40.755Z,3.72
2023-06-02T00:41:14.765Z,4.05
2023-06-02T00:43:46.915Z,3.22
2023-06-02T00:46:21.086Z,3.55
2023-06-02T00:48:52.439Z,4.25
2023-06-02T00:51:24.338Z,3.70
2023-06-02T00:54:03.905Z,4.07
2023-06-02T00:56:35.721Z,3.58
2023-06-02T00:59:09.010Z,4.68
2023-06-02T01:01:39.798Z,3.95
2023-06-02T01:04:14.305Z,3.95
2023-06-02T01:06:53.888Z,3.97
2023-06-02T01:09:29.222Z,4.13
2023-06-02T01:11:59.382Z,3.92
2023-06-02T01:14:31.627Z,3.67
2023-06-02T01:17:01.408Z,4.45
2023-06-02T01:19:29.986Z,4.22
2023-06-02T01:22:05.860Z,5.15
2023-06-02T01:24:42.628Z,3.72
2023-06-02T01:27:15.031Z,3.90
2023-06-02T01:29:45.484Z,4.72
2023-06-02T01:32:24.866Z,4.82
2023-06-02T01:34:59.241Z,3.90
2023-06-02T01:37:28.725Z,3.70
2023-06-02T01:39:59.321Z,4.22
2023-06-02T01:42:28.045Z,3.65
2023-06-02T01:44:57.525Z,4.10
2023-06-02T01:47:26.110Z,4.15
2023-06-02T01:49:57.342Z,3.85
2023-06-02T01:52:25.485Z,4.10
2023-06-02T01:54:53.844Z,4.50
2023-06-02T01:57:23.685Z,4.30
2023-06-02T01:59:51.817Z,4.10
2023-06-02T02:02:19.934Z,4.35
2023-06-02T02:04:48.047Z,4.20
2023-06-02T02:07:20.706Z,4.32
2023-06-02T02:09:48.938Z,3.63
2023-06-02T02:12:17.037Z,4.20
2023-06-02T02:14:46.488Z,4.00
2023-06-02T02:17:14.646Z,4.20
2023-06-02T02:19:43.028Z,4.22
2023-06-02T02:22:11.152Z,3.53
2023-06-02T02:24:39.327Z,4.40
2023-06-02T02:27:09.608Z,4.38
2023-06-02T02:29:38.214Z,4.60
2023-06-02T02:32:09.121Z,4.60
2023-06-02T02:34:40.094Z,3.95
2023-06-02T02:37:10.863Z,4.03
2023-06-02T02:39:38.957Z,3.90
2023-06-02T02:42:08.197Z,3.97
2023-06-02T02:44:36.314Z,4.75
2023-06-02T02:47:04.504Z,3.60
2023-06-02T02:49:33.945Z,3.85
2023-06-02T02:52:03.200Z,4.10
2023-06-02T02:54:31.509Z,4.75
2023-06-02T02:56:59.688Z,4.15
2023-06-02T02:59:28.447Z,3.95
2023-06-02T03:01:56.593Z,3.90
2023-06-02T03:04:25.677Z,4.07
2023-06-02T03:06:56.334Z,4.65
2023-06-02T03:09:24.540Z,4.20
2023-06-02T03:11:52.662Z,4.68
2023-06-02T03:14:20.737Z,3.92
2023-06-02T03:16:49.651Z,4.90
2023-06-02T03:19:18.048Z,4.05
2023-06-02T03:21:46.189Z,4.47
2023-06-02T03:24:17.596Z,5.03
2023-06-02T03:26:46.376Z,4.57
2023-06-02T03:29:15.121Z,3.97
2023-06-02T03:31:43.532Z,4.55
2023-06-02T03:34:11.767Z,3.92
2023-06-02T03:36:40.808Z,4.38
2023-06-02T03:39:10.915Z,4.15
2023-06-02T03:41:40.654Z,3.95
2023-06-02T03:44:08.753Z,3.55
2023-06-02T03:46:36.938Z,3.65
2023-06-02T03:49:05.136Z,3.63
2023-06-02T03:51:33.214Z,4.30
2023-06-02T03:54:01.339Z,4.05
2023-06-02T03:56:29.464Z,4.20
2023-06-02T03:58:58.918Z,4.20
2023-06-02T04:01:27.473Z,4.03
2023-06-02T04:03:56.046Z,4.10
2023-06-02T04:06:24.246Z,4.18
2023-06-02T04:08:52.550Z,4.13
2023-06-02T04:11:23.390Z,4.07
2023-06-02T04:13:51.625Z,3.57
2023-06-02T04:16:21.164Z,3.60
2023-06-02T04:18:49.254Z,3.97
2023-06-02T04:21:17.345Z,4.05
2023-06-02T04:23:45.570Z,3.65
2023-06-02T04:26:13.700Z,3.75
2023-06-02T04:28:42.323Z,4.15
2023-06-02T04:31:12.287Z,4.65
2023-06-02T04:33:41.741Z,3.95
2023-06-02T04:36:11.444Z,3.80
2023-06-02T04:38:39.511Z,3.78
2023-06-02T04:41:07.653Z,3.63
2023-06-02T04:43:36.245Z,3.80
2023-06-02T04:46:07.531Z,4.30
2023-06-02T04:48:35.981Z,4.15
2023-06-02T04:51:05.462Z,4.43
2023-06-02T04:53:33.546Z,3.80
2023-06-02T04:56:01.966Z,4.05
2023-06-02T04:58:30.136Z,3.80
2023-06-02T05:00:58.208Z,3.95
2023-06-02T05:03:26.477Z,3.40
2023-06-02T05:05:54.638Z,3.53
2023-06-02T05:08:24.060Z,3.80
2023-06-02T05:10:52.134Z,4.38
2023-06-02T05:13:20.228Z,3.65
2023-06-02T05:15:48.489Z,3.35
2023-06-02T05:18:17.765Z,3.58
2023-06-02T05:20:46.363Z,3.72
2023-06-02T05:23:15.805Z,3.80
2023-06-02T05:25:45.572Z,3.33
2023-06-02T05:28:13.822Z,3.22
2023-06-02T05:30:41.924Z,3.50
2023-06-02T05:33:09.999Z,3.92
2023-06-02T05:35:38.094Z,3.78
2023-06-02T05:38:06.625Z,3.35
2023-06-02T05:40:34.725Z,3.17
2023-06-02T05:43:04.202Z,3.42
2023-06-02T05:45:32.332Z,3.25
2023-06-02T05:48:00.681Z,3.55
2023-06-02T05:50:28.818Z,2.88
2023-06-02T05:52:56.864Z,3.28
2023-06-02T05:55:24.959Z,3.00
2023-06-02T05:57:53.377Z,3.30
2023-06-02T06:00:23.389Z,3.38
2023-06-02T06:02:51.884Z,2.90
2023-06-02T06:05:20.123Z,3.55
2023-06-02T06:07:48.239Z,2.90
2023-06-02T06:10:16.354Z,3.30
2023-06-02T06:12:44.452Z,3.22
2023-06-02T06:15:12.823Z,3.15
2023-06-02T06:17:51.005Z,3.28
2023-06-02T06:20:19.320Z,3.88
2023-06-02T06:22:47.497Z,3.15
2023-06-02T06:25:15.673Z,2.90
2023-06-02T06:27:43.860Z,3.13
2023-06-02T06:30:12.752Z,2.95
2023-06-02T06:32:40.906Z,3.67
2023-06-02T06:35:10.881Z,2.72
2023-06-02T06:37:39.002Z,3.33
2023-06-02T06:40:08.120Z,2.85
2023-06-02T06:42:36.204Z,2.83
2023-06-02T06:45:04.327Z,3.05
2023-06-02T06:47:32.562Z,3.15
2023-06-02T06:50:00.702Z,3.38
2023-06-02T06:52:30.177Z,2.85
2023-06-02T06:54:58.365Z,2.70
2023-06-02T06:57:26.477Z,3.20
2023-06-02T06:59:55.680Z,2.45
2023-06-02T07:02:23.777Z,2.60
2023-06-02T07:04:51.928Z,2.47
2023-06-02T07:07:20.080Z,2.72
2023-06-02T07:09:49.867Z,2.88
2023-06-02T07:12:18.005Z,2.67
2023-06-02T07:14:46.103Z,2.88
2023-06-02T07:17:14.178Z,2.63
2023-06-02T07:19:42.422Z,2.60
2023-06-02T07:22:12.063Z,2.40
2023-06-02T07:24:40.148Z,3.00
2023-06-02T07:27:09.731Z,2.47
2023-06-02T07:29:37.869Z,2.33
2023-06-02T07:32:06.574Z,8.57
2023-06-02T07:34:34.696Z,5.63
2023-06-02T07:37:03.519Z,4.07
2023-06-02T07:39:31.914Z,2.97
2023-06-02T07:42:00.015Z,3.00
2023-06-02T07:44:29.651Z,2.42
2023-06-02T07:46:57.834Z,2.85
2023-06-02T07:49:26.279Z,3.15
2023-06-02T07:51:54.560Z,2.45
2023-06-02T07:54:22.656Z,2.78
2023-06-02T07:56:52.147Z,3.17
2023-06-02T07:59:20.622Z,3.05
2023-06-02T08:01:50.112Z,3.17
2023-06-02T08:04:18.358Z,2.40
2023-06-02T08:06:46.654Z,2.65
2023-06-02T08:09:16.704Z,2.70
2023-06-02T08:11:44.819Z,2.67
2023-06-02T08:14:12.897Z,2.92
2023-06-02T08:16:57.027Z,2.70
2023-06-02T08:19:27.899Z,2.90
2023-06-02T08:21:56.172Z,3.00
2023-06-02T08:24:26.633Z,3.50
2023-06-02T08:26:55.724Z,2.88
2023-06-02T08:29:24.677Z,2.38
2023-06-02T08:31:53.861Z,2.85
2023-06-02T08:34:22.917Z,3.40
2023-06-02T08:36:58.672Z,3.10
2023-06-02T08:39:28.038Z,3.88
2023-06-02T08:41:58.051Z,3.17
2023-06-02T08:44:26.243Z,3.10
2023-06-02T08:46:56.340Z,3.13
2023-06-02T08:49:24.977Z,3.30
2023-06-02T08:52:02.107Z,3.90
2023-06-02T08:54:31.814Z,3.42
2023-06-02T08:57:01.174Z,3.40
2023-06-02T08:59:29.477Z,3.38
2023-06-02T09:01:57.819Z,3.47
2023-06-02T09:04:25.987Z,3.40
2023-06-02T09:07:21.108Z,3.03
2023-06-02T09:09:51.042Z,3.65
2023-06-02T09:12:20.168Z,3.50
2023-06-02T09:14:50.012Z,4.00
2023-06-02T09:17:29.144Z,3.40
2023-06-02T09:19:58.571Z,3.80
2023-06-02T09:22:28.210Z,3.08
2023-06-02T09:24:56.552Z,3.35
2023-06-02T09:27:27.165Z,3.42
2023-06-02T09:30:01.939Z,3.90
2023-06-02T09:32:30.182Z,3.50
2023-06-02T09:34:58.433Z,3.17
2023-06-02T09:37:27.914Z,3.78
2023-06-02T09:39:59.165Z,3.47
2023-06-02T09:42:27.291Z,3.35
2023-06-02T09:45:06.428Z,3.28
2023-06-02T09:47:40.514Z,3.45
2023-06-02T09:50:09.873Z,3.50
2023-06-02T09:52:39.385Z,3.15
2023-06-02T09:55:09.857Z,3.10
2023-06-02T09:57:38.906Z,2.90
2023-06-02T10:00:13.073Z,3.67
2023-06-02T10:02:41.424Z,3.22
2023-06-02T10:05:10.103Z,3.42
2023-06-02T10:07:51.350Z,3.30
2023-06-02T10:10:27.523Z,3.35
2023-06-02T10:13:14.684Z,3.70
2023-06-02T10:15:58.984Z,3.78
2023-06-02T10:19:04.260Z,3.50
2023-06-02T10:21:43.377Z,3.13
2023-06-02T10:24:26.254Z,3.08
2023-06-02T10:27:10.910Z,2.75
2023-06-02T10:29:40.487Z,3.40
2023-06-02T10:32:26.233Z,3.10
2023-06-02T10:34:55.923Z,3.30
2023-06-02T10:37:25.739Z,2.72
2023-06-02T10:39:56.929Z,3.65
2023-06-02T10:42:26.925Z,3.15
2023-06-02T10:45:15.525Z,2.95
2023-06-02T10:47:43.629Z,2.75
2023-06-02T10:50:15.585Z,3.30
2023-06-02T10:53:11.157Z,2.85
2023-06-02T10:55:42.849Z,2.40
2023-06-02T10:58:13.995Z,2.75
2023-06-02T11:00:51.285Z,2.65
2023-06-02T11:03:34.118Z,3.08
2023-06-02T11:06:22.467Z,3.03
2023-06-02T11:08:53.133Z,2.72
2023-06-02T11:11:55.057Z,2.63
2023-06-02T11:14:23.987Z,2.38
2023-06-02T11:17:29.688Z,3.92
2023-06-02T11:19:58.848Z,2.90
2023-06-02T11:22:27.331Z,2.88
2023-06-02T11:24:57.006Z,2.63
2023-06-02T11:27:42.176Z,2.92
2023-06-02T11:30:16.450Z,3.03
2023-06-02T11:32:47.878Z,3.03
2023-06-02T11:35:17.609Z,2.92
2023-06-02T11:37:46.114Z,2.72
2023-06-02T11:40:15.075Z,2.85
2023-06-02T11:42:46.282Z,2.53
2023-06-02T11:45:22.695Z,2.95
2023-06-02T11:47:59.280Z,2.45
2023-06-02T11:50:27.526Z,2.75
2023-06-02T11:52:55.904Z,1.95
2023-06-02T11:55:28.662Z,2.17
2023-06-02T11:58:18.687Z,2.20
2023-06-02T12:00:46.777Z,2.10
2023-06-02T12:03:15.460Z,2.42
2023-06-02T12:05:45.813Z,2.50
2023-06-02T12:08:21.349Z,2.42
2023-06-02T12:10:50.458Z,2.75
2023-06-02T12:13:27.596Z,2.05
2023-06-02T12:15:56.084Z,2.22
2023-06-02T12:18:31.446Z,2.15
2023-06-02T12:21:00.619Z,2.22
2023-06-02T12:23:44.594Z,1.88
2023-06-02T12:26:12.967Z,1.92
2023-06-02T12:28:42.495Z,1.90
2023-06-02T12:31:10.728Z,1.88
2023-06-02T12:33:39.439Z,1.90
2023-06-02T12:36:08.879Z,2.38
2023-06-02T12:38:37.157Z,1.90
2023-06-02T12:41:11.788Z,3.78
2023-06-02T12:43:40.517Z,2.13
2023-06-02T12:46:12.427Z,2.35
2023-06-02T12:48:40.853Z,2.70
2023-06-02T12:51:09.373Z,2.10
2023-06-02T12:53:38.031Z,2.70
2023-06-02T12:56:06.685Z,2.45
2023-06-02T12:58:36.176Z,2.40
2023-06-02T13:01:04.868Z,2.03
2023-06-02T13:03:34.945Z,2.20
2023-06-02T13:06:04.968Z,1.70
2023-06-02T13:08:33.978Z,1.80
2023-06-02T13:11:02.091Z,2.20
2023-06-02T13:13:30.465Z,2.40
2023-06-02T13:15:59.355Z,2.20
2023-06-02T13:18:27.694Z,2.33
2023-06-02T13:20:57.606Z,1.70
2023-06-02T13:23:25.910Z,2.10
2023-06-02T13:25:54.178Z,2.47
2023-06-02T13:28:22.329Z,1.90
2023-06-02T13:30:51.555Z,2.35
2023-06-02T13:33:19.720Z,2.53
2023-06-02T13:35:47.908Z,2.75
2023-06-02T13:38:17.357Z,2.33
2023-06-02T13:40:47.155Z,2.42
2023-06-02T13:43:15.245Z,2.03
2023-06-02T13:45:43.375Z,2.53
2023-06-02T13:48:11.583Z,2.38
2023-06-02T13:50:39.854Z,2.67
2023-06-02T13:53:08.734Z,2.10
2023-06-02T13:55:38.188Z,2.40
2023-06-02T13:58:07.394Z,2.72
2023-06-02T14:00:36.357Z,2.92
2023-06-02T14:03:04.645Z,2.00
2023-06-02T14:05:32.855Z,2.78
2023-06-02T14:08:03.384Z,2.30
2023-06-02T14:10:31.638Z,3.00
2023-06-02T14:13:01.152Z,2.85
2023-06-02T14:15:29.254Z,2.70
2023-06-02T14:17:57.388Z,2.58
2023-06-02T14:20:25.562Z,2.53
2023-06-02T14:22:53.711Z,2.65
2023-06-02T14:25:22.047Z,3.05
2023-06-02T14:27:50.280Z,2.45
2023-06-02T14:30:19.799Z,3.00
2023-06-02T14:32:48.154Z,2.38
2023-06-02T14:35:16.373Z,2.72
2023-06-02T14:37:44.465Z,2.55
2023-06-02T14:40:13.327Z,2.35
2023-06-02T14:42:41.435Z,2.30
2023-06-02T14:45:10.317Z,2.22
2023-06-02T14:47:39.824Z,2.80
2023-06-02T14:50:09.089Z,2.50
2023-06-02T14:52:37.165Z,2.53
2023-06-02T14:55:05.793Z,2.53
2023-06-02T14:57:33.915Z,2.75
2023-06-02T15:00:02.110Z,2.35
2023-06-02T15:02:30.205Z,2.47
2023-06-02T15:04:59.669Z,2.20
2023-06-02T15:07:27.804Z,2.42
2023-06-02T15:09:55.902Z,2.00
2023-06-02T15:12:23.985Z,2.30
2023-06-02T15:14:52.104Z,1.88
2023-06-02T15:17:20.219Z,2.33
2023-06-02T15:19:48.355Z,2.20
2023-06-02T15:22:18.074Z,2.55
2023-06-02T15:24:46.329Z,2.10
2023-06-02T15:27:14.717Z,2.40
2023-06-02T15:29:42.856Z,2.40
2023-06-02T15:32:11.283Z,2.38
2023-06-02T15:34:39.388Z,2.25
2023-06-02T15:37:07.971Z,2.83
2023-06-02T15:39:37.486Z,1.98
2023-06-02T15:42:06.050Z,2.42
2023-06-02T15:44:34.189Z,2.15
2023-06-02T15:47:02.358Z,2.10
2023-06-02T15:49:31.203Z,2.03
2023-06-02T15:51:59.888Z,2.13
2023-06-02T15:54:28.038Z,1.83
2023-06-02T15:56:58.214Z,2.30
2023-06-02T15:59:26.653Z,1.85
2023-06-02T16:01:57.084Z,1.92
2023-06-02T16:04:25.570Z,2.05
2023-06-02T16:06:53.943Z,2.50
2023-06-02T16:09:22.469Z,1.90
2023-06-02T16:11:50.784Z,2.17
2023-06-02T16:14:20.672Z,2.45
2023-06-02T16:16:48.970Z,1.83
2023-06-02T16:19:17.750Z,2.00
2023-06-02T16:21:46.139Z,2.60
2023-06-02T16:24:14.519Z,2.13
2023-06-02T16:26:42.715Z,2.05
2023-06-02T16:29:11.057Z,2.08
2023-06-02T16:31:40.684Z,2.00
2023-06-02T16:34:08.825Z,2.42
2023-06-02T16:36:36.951Z,1.90
2023-06-02T16:39:05.270Z,2.50
2023-06-02T16:41:33.412Z,1.50
2023-06-02T16:44:01.494Z,1.90
2023-06-02T16:46:29.665Z,1.50
2023-06-02T16:48:59.308Z,1.83
2023-06-02T16:51:27.876Z,2.38
2023-06-02T16:53:56.357Z,2.58
2023-06-02T16:56:24.562Z,2.10
2023-06-02T16:58:52.635Z,2.03
2023-06-02T17:01:20.771Z,1.90
2023-06-02T17:03:48.938Z,1.55
2023-06-02T17:06:18.749Z,1.85
2023-06-02T17:08:46.810Z,2.20
2023-06-02T17:11:14.938Z,1.42
2023-06-02T17:13:43.133Z,1.85
2023-06-02T17:16:11.949Z,2.10
2023-06-02T17:18:41.184Z,1.83
2023-06-02T17:21:09.392Z,2.03
2023-06-02T17:23:38.986Z,2.17
2023-06-02T17:26:07.359Z,1.65
2023-06-02T17:28:35.614Z,2.17
2023-06-02T17:31:05.863Z,1.70
2023-06-02T17:33:34.484Z,1.63
2023-06-02T17:36:02.624Z,1.92
2023-06-02T17:38:30.710Z,2.05
2023-06-02T17:41:00.156Z,1.58
2023-06-02T17:43:28.793Z,2.03
2023-06-02T17:45:59.282Z,2.38
2023-06-02T17:48:27.874Z,2.22
2023-06-02T17:50:55.968Z,1.80
2023-06-02T17:53:24.061Z,2.75
2023-06-02T17:55:52.290Z,2.30
2023-06-02T17:58:22.393Z,2.33
2023-06-02T18:00:50.665Z,2.40
2023-06-02T18:03:18.911Z,1.58
2023-06-02T18:05:47.057Z,1.98
2023-06-02T18:08:15.462Z,2.30
2023-06-02T18:10:43.579Z,1.80
2023-06-02T18:13:11.769Z,1.77
2023-06-02T18:15:42.064Z,1.83
2023-06-02T18:18:10.595Z,1.77
2023-06-02T18:20:38.770Z,2.63
2023-06-02T18:23:07.092Z,2.00
2023-06-02T18:25:35.163Z,2.13
2023-06-02T18:28:03.288Z,2.47
2023-06-02T18:30:32.520Z,1.70
2023-06-02T18:33:02.054Z,1.60
2023-06-02T18:35:30.461Z,2.30
2023-06-02T18:37:58.687Z,2.17
2023-06-02T18:40:26.793Z,1.85
2023-06-02T18:42:54.866Z,2.50
2023-06-02T18:45:22.953Z,1.77
2023-06-02T18:47:51.794Z,1.90
2023-06-02T18:50:21.431Z,1.98
2023-06-02T18:52:49.515Z,2.10
2023-06-02T18:55:17.677Z,2.47
2023-06-02T18:57:46.088Z,1.95
2023-06-02T19:00:15.089Z,1.77
2023-06-02T19:02:43.448Z,2.35
2023-06-02T19:05:11.652Z,1.77
2023-06-02T19:07:41.098Z,1.98
2023-06-02T19:10:09.738Z,1.52
2023-06-02T19:12:37.824Z,2.13
2023-06-02T19:15:07.158Z,1.83
2023-06-02T19:17:36.091Z,1.60
2023-06-02T19:20:07.139Z,2.22
2023-06-02T19:22:36.574Z,2.33
2023-06-02T19:25:07.775Z,1.98
2023-06-02T19:27:36.148Z,2.22
2023-06-02T19:30:04.635Z,1.65
2023-06-02T19:32:32.852Z,1.80
2023-06-02T19:35:01.088Z,2.28
2023-06-02T19:37:29.220Z,1.70
2023-06-02T19:39:57.502Z,1.77
2023-06-02T19:42:28.385Z,1.83
2023-06-02T19:44:56.459Z,1.90
2023-06-02T19:47:25.002Z,1.85
2023-06-02T19:49:53.114Z,1.98
2023-06-02T19:52:21.280Z,1.83
2023-06-02T19:54:49.476Z,2.50
2023-06-02T19:57:18.959Z,1.95
2023-06-02T19:59:51.233Z,1.90
2023-06-02T20:02:19.466Z,1.85
2023-06-02T20:04:49.865Z,2.15
2023-06-02T20:07:18.098Z,2.33
2023-06-02T20:09:48.485Z,1.80
2023-06-02T20:12:16.833Z,1.70
2023-06-02T20:14:45.001Z,1.58
2023-06-02T20:17:14.561Z,1.70
2023-06-02T20:19:43.002Z,1.88
2023-06-02T20:22:11.677Z,1.80
2023-06-02T20:24:39.891Z,1.80
2023-06-02T20:27:08.480Z,1.90
2023-06-02T20:29:37.162Z,2.50
2023-06-02T20:32:06.362Z,1.50
2023-06-02T20:34:36.332Z,1.67
2023-06-02T20:37:04.811Z,1.88
2023-06-02T20:39:32.984Z,1.63
2023-06-02T20:42:01.060Z,1.90
2023-06-02T20:44:30.065Z,1.60
2023-06-02T20:46:58.484Z,1.65
2023-06-02T20:49:26.662Z,2.05
2023-06-02T20:51:56.194Z,2.00
2023-06-02T20:54:24.365Z,1.77
2023-06-02T20:56:52.623Z,1.45
2023-06-02T20:59:20.939Z,2.42
2023-06-02T21:01:49.118Z,1.98
2023-06-02T21:04:17.385Z,2.05
2023-06-02T21:06:45.560Z,1.70
2023-06-02T21:09:15.102Z,2.05
2023-06-02T21:11:43.249Z,1.80
2023-06-02T21:14:11.354Z,1.85
2023-06-02T21:16:39.502Z,1.90
2023-06-02T21:19:07.761Z,1.67
2023-06-02T21:21:36.448Z,1.95
2023-06-02T21:24:04.822Z,1.63
2023-06-02T21:26:34.692Z,1.67
2023-06-02T21:29:02.801Z,1.83
2023-06-02T21:31:30.991Z,1.60
2023-06-02T21:33:59.221Z,1.75
2023-06-02T21:36:27.417Z,1.75
2023-06-02T21:38:55.832Z,1.55
2023-06-02T21:41:23.920Z,1.50
2023-06-02T21:43:53.470Z,1.55
2023-06-02T21:46:21.642Z,1.80
2023-06-02T21:48:49.899Z,1.55
2023-06-02T21:51:18.054Z,1.92
2023-06-02T21:53:46.198Z,1.60
2023-06-02T21:56:14.384Z,1.58
2023-06-02T21:58:42.565Z,1.80
2023-06-02T22:01:12.055Z,1.73
2023-06-02T22:03:40.276Z,1.63
2023-06-02T22:06:08.532Z,1.50
2023-06-02T22:08:36.611Z,1.60
2023-06-02T22:11:05.075Z,1.77
2023-06-02T22:13:33.424Z,2.53
2023-06-02T22:16:01.627Z,1.85
2023-06-02T22:18:31.182Z,1.95
2023-06-02T22:20:59.309Z,1.95
2023-06-02T22:23:27.441Z,1.88
2023-06-02T22:25:55.626Z,1.95
2023-06-02T22:28:23.693Z,2.40
2023-06-02T22:30:51.752Z,1.70
2023-06-02T22:33:19.889Z,2.17
2023-06-02T22:35:49.383Z,2.22
2023-06-02T22:38:17.454Z,2.15
2023-06-02T22:40:45.645Z,2.00
2023-06-02T22:43:13.710Z,2.35
2023-06-02T22:45:41.845Z,1.80
2023-06-02T22:48:10.140Z,2.92
2023-06-02T22:50:38.261Z,1.85
2023-06-02T22:53:07.726Z,2.63
2023-06-02T22:55:35.934Z,2.45
2023-06-02T22:58:04.035Z,1.60
2023-06-02T23:00:32.301Z,1.90
2023-06-02T23:03:00.388Z,2.08
2023-06-02T23:05:28.540Z,2.00
2023-06-02T23:07:56.725Z,2.08
2023-06-02T23:10:26.930Z,2.15
2023-06-02T23:12:55.189Z,1.83
2023-06-02T23:15:23.320Z,1.85
2023-06-02T23:17:51.502Z,1.77
2023-06-02T23:20:19.768Z,1.80
2023-06-02T23:22:48.194Z,2.47
2023-06-02T23:25:16.285Z,1.98
2023-06-02T23:27:45.872Z,2.80
2023-06-02T23:30:15.891Z,2.10
2023-06-02T23:32:44.407Z,1.95
2023-06-02T23:35:12.629Z,1.85
2023-06-02T23:37:40.738Z,1.70
2023-06-02T23:40:10.059Z,1.92
2023-06-02T23:42:39.133Z,1.80
2023-06-02T23:45:09.914Z,1.80
2023-06-02T23:47:38.101Z,2.40
2023-06-02T23:50:07.588Z,1.65
2023-06-02T23:52:35.950Z,2.28
2023-06-02T23:55:04.086Z,2.17
2023-06-02T23:57:32.180Z,2.05
